createdAt,value
2018-12-31T00:02:56.452Z,100.00
2018-12-31T00:08:00.540Z,100.00
2018-12-31T00:13:04.535Z,100.00
2018-12-31T00:18:09.096Z,100.00
2018-12-31T00:23:13.479Z,100.00
2018-12-31T00:28:18.391Z,100.00
2018-12-31T00:33:22.696Z,100.00
2018-12-31T00:38:26.770Z,100.00
2018-12-31T00:43:30.883Z,100.00
2018-12-31T00:48:35.169Z,100.00
2018-12-31T00:53:39.474Z,100.00
2018-12-31T00:58:43.582Z,100.00
2018-12-31T01:03:47.578Z,100.00
2018-12-31T01:08:52.200Z,100.00
2018-12-31T01:13:56.263Z,100.00
2018-12-31T01:19:00.307Z,100.00
2018-12-31T01:24:04.338Z,100.00
2018-12-31T01:29:08.643Z,100.00
2018-12-31T01:34:12.694Z,100.00
2018-12-31T01:39:16.749Z,100.00
2018-12-31T01:44:20.786Z,100.00
2018-12-31T01:49:24.910Z,100.00
2018-12-31T01:54:29.045Z,100.00
2018-12-31T01:59:33.056Z,100.00
2018-12-31T02:04:37.147Z,100.00
2018-12-31T02:09:41.475Z,100.00
2018-12-31T02:14:45.795Z,100.00
2018-12-31T02:19:49.890Z,100.00
2018-12-31T02:24:53.952Z,100.00
2018-12-31T02:29:59.274Z,100.00
2018-12-31T02:35:03.338Z,100.00
2018-12-31T02:40:07.463Z,100.00
2018-12-31T02:45:12.088Z,100.00
2018-12-31T02:50:16.139Z,100.00
2018-12-31T02:55:20.179Z,100.00
2018-12-31T03:00:24.221Z,100.00
2018-12-31T03:05:28.288Z,100.00
2018-12-31T03:10:32.636Z,100.00
2018-12-31T03:15:36.647Z,100.00
2018-12-31T03:20:40.731Z,100.00
2018-12-31T03:25:45.324Z,100.00
2018-12-31T03:30:49.417Z,100.00
2018-12-31T03:35:53.447Z,100.00
2018-12-31T03:40:58.056Z,100.00
2018-12-31T03:46:02.391Z,100.00
2018-12-31T03:51:09.603Z,100.00
2018-12-31T03:56:13.827Z,100.00
2018-12-31T04:01:18.560Z,100.00
2018-12-31T04:06:23.191Z,100.00
2018-12-31T04:11:28.072Z,100.00
2018-12-31T04:16:32.117Z,100.00
2018-12-31T04:21:36.813Z,100.00
2018-12-31T04:26:41.510Z,100.00
2018-12-31T04:31:46.341Z,100.00
2018-12-31T04:36:51.267Z,100.00
2018-12-31T04:41:55.747Z,100.00
2018-12-31T04:47:01.102Z,100.00
2018-12-31T04:52:05.281Z,100.00
2018-12-31T04:57:10.183Z,100.00
2018-12-31T05:02:15.008Z,100.00
2018-12-31T05:07:19.330Z,100.00
2018-12-31T05:12:23.551Z,100.00
2018-12-31T05:17:27.916Z,100.00
2018-12-31T05:22:31.963Z,100.00
2018-12-31T05:27:36.017Z,100.00
2018-12-31T05:32:40.156Z,100.00
2018-12-31T05:37:44.215Z,100.00
2018-12-31T05:42:48.554Z,100.00
2018-12-31T05:47:52.613Z,100.00
2018-12-31T05:52:56.635Z,100.00
2018-12-31T05:58:00.667Z,100.00
2018-12-31T06:03:05.065Z,100.00
2018-12-31T06:08:10.090Z,100.00
2018-12-31T06:13:14.181Z,100.00
2018-12-31T06:18:18.318Z,100.00
2018-12-31T06:23:22.429Z,100.00
2018-12-31T06:28:26.550Z,100.00
2018-12-31T06:33:30.946Z,100.00
2018-12-31T06:38:35.123Z,100.00
2018-12-31T06:43:39.177Z,100.00
2018-12-31T06:48:43.245Z,100.00
2018-12-31T06:53:47.559Z,100.00
2018-12-31T06:58:51.612Z,100.00
2018-12-31T07:03:55.951Z,100.00
2018-12-31T07:09:00.033Z,100.00
2018-12-31T07:14:07.707Z,100.00
2018-12-31T07:19:11.792Z,100.00
2018-12-31T07:24:16.124Z,100.00
2018-12-31T07:29:20.435Z,100.00
2018-12-31T07:34:24.681Z,100.00
2018-12-31T07:39:29.180Z,100.00
2018-12-31T07:44:33.513Z,100.00
2018-12-31T07:49:38.192Z,100.00
2018-12-31T07:54:44.160Z,100.00
2018-12-31T07:59:48.349Z,100.00
2018-12-31T08:05:09.965Z,100.00
2018-12-31T08:10:31.971Z,100.00
2018-12-31T08:15:36.095Z,100.00
2018-12-31T08:20:40.208Z,100.00
2018-12-31T08:26:02.158Z,100.00
2018-12-31T08:31:24.507Z,100.00
2018-12-31T08:36:28.553Z,100.00
2018-12-31T08:41:50.489Z,100.00
2018-12-31T08:46:54.562Z,100.00
2018-12-31T08:51:58.659Z,100.00
2018-12-31T08:57:02.782Z,100.00
2018-12-31T09:02:06.849Z,100.00
2018-12-31T09:07:10.880Z,100.00
2018-12-31T09:12:14.995Z,100.00
2018-12-31T09:17:19.042Z,100.00
2018-12-31T09:22:23.170Z,100.00
2018-12-31T09:27:44.786Z,100.00
2018-12-31T09:32:48.890Z,100.00
2018-12-31T09:37:53.020Z,100.00
2018-12-31T09:42:57.098Z,100.00
2018-12-31T09:48:01.169Z,100.00
2018-12-31T09:53:23.180Z,100.00
2018-12-31T09:58:46.449Z,100.00
2018-12-31T10:03:50.489Z,96.57
2018-12-31T10:08:54.577Z,94.89
2018-12-31T10:13:58.639Z,94.80
2018-12-31T10:19:02.744Z,94.02
2018-12-31T10:24:06.819Z,93.69
2018-12-31T10:29:10.850Z,93.25
2018-12-31T10:34:14.961Z,91.25
2018-12-31T10:39:19.006Z,91.11
2018-12-31T10:44:24.131Z,91.72
2018-12-31T10:49:28.165Z,93.42
2018-12-31T10:54:32.221Z,94.59
2018-12-31T10:59:36.372Z,93.97
2018-12-31T11:04:40.733Z,94.37
2018-12-31T11:09:45.277Z,94.28
2018-12-31T11:14:49.472Z,93.14
2018-12-31T11:19:53.637Z,93.33
2018-12-31T11:24:57.742Z,91.93
2018-12-31T11:30:01.816Z,90.73
2018-12-31T11:35:06.438Z,90.53
2018-12-31T11:40:10.551Z,90.06
2018-12-31T11:45:14.632Z,88.08
2018-12-31T11:50:19.705Z,86.12
2018-12-31T11:55:23.775Z,87.71
2018-12-31T12:00:27.866Z,89.69
2018-12-31T12:05:31.924Z,88.55
2018-12-31T12:10:36.087Z,89.18
2018-12-31T12:15:40.263Z,88.58
2018-12-31T12:20:44.389Z,89.30
2018-12-31T12:25:48.398Z,90.04
2018-12-31T12:30:52.462Z,89.46
2018-12-31T12:35:56.611Z,89.12
2018-12-31T12:41:01.021Z,87.80
2018-12-31T12:46:05.187Z,87.82
2018-12-31T12:51:09.487Z,86.10
2018-12-31T12:56:13.545Z,83.91
2018-12-31T13:01:17.627Z,84.50
2018-12-31T13:06:22.099Z,86.46
2018-12-31T13:11:26.246Z,87.57
2018-12-31T13:16:30.297Z,86.79
2018-12-31T13:21:34.401Z,83.07
2018-12-31T13:26:43.629Z,83.74
2018-12-31T13:31:44.252Z,84.49
2018-12-31T13:36:48.404Z,84.92
2018-12-31T13:41:52.487Z,85.53
2018-12-31T13:46:56.561Z,86.69
2018-12-31T13:52:00.882Z,86.86
2018-12-31T13:57:04.975Z,87.79
2018-12-31T14:02:09.190Z,88.75
2018-12-31T14:07:13.227Z,89.38
2018-12-31T14:12:17.501Z,90.51
2018-12-31T14:17:21.620Z,91.61
2018-12-31T14:22:25.893Z,92.70
2018-12-31T14:27:30.061Z,93.52
2018-12-31T14:32:34.508Z,93.56
2018-12-31T14:37:38.607Z,94.25
2018-12-31T14:42:43.096Z,95.16
2018-12-31T14:47:47.113Z,96.95
2018-12-31T14:52:51.454Z,97.69
2018-12-31T14:57:55.524Z,98.21
2018-12-31T15:03:00.082Z,98.48
2018-12-31T15:08:04.810Z,99.32
2018-12-31T15:13:09.262Z,100.00
2018-12-31T15:18:13.460Z,100.00
2018-12-31T15:23:17.591Z,100.00
2018-12-31T15:28:21.791Z,100.00
2018-12-31T15:33:25.902Z,100.00
2018-12-31T15:38:30.265Z,100.00
2018-12-31T15:43:34.361Z,100.00
2018-12-31T15:48:38.533Z,100.00
2018-12-31T15:53:43.214Z,100.00
2018-12-31T15:58:47.874Z,100.00
2018-12-31T16:03:52.014Z,100.00
2018-12-31T16:08:56.061Z,100.00
2018-12-31T16:14:00.135Z,100.00
2018-12-31T16:19:04.249Z,100.00
2018-12-31T16:24:11.467Z,100.00
2018-12-31T16:29:30.916Z,100.00
2018-12-31T16:34:52.537Z,100.00
2018-12-31T16:40:14.455Z,100.00
2018-12-31T16:45:33.400Z,100.00
2018-12-31T16:50:55.383Z,100.00
2018-12-31T16:55:59.659Z,100.00
2018-12-31T17:01:03.680Z,100.00
2018-12-31T17:06:08.029Z,100.00
2018-12-31T17:11:12.275Z,100.00
2018-12-31T17:16:16.365Z,100.00
2018-12-31T17:21:20.440Z,100.00
2018-12-31T17:26:36.202Z,100.00
2018-12-31T17:31:40.238Z,100.00
2018-12-31T17:36:44.596Z,100.00
2018-12-31T17:41:48.748Z,100.00
2018-12-31T17:46:53.027Z,100.00
2018-12-31T17:51:57.090Z,100.00
2018-12-31T17:57:01.162Z,100.00
2018-12-31T18:02:25.240Z,100.00
2018-12-31T18:07:29.316Z,100.00
2018-12-31T18:12:33.376Z,100.00
2018-12-31T18:17:55.038Z,100.00
2018-12-31T18:22:59.099Z,100.00
2018-12-31T18:28:03.168Z,100.00
2018-12-31T18:33:07.291Z,100.00
2018-12-31T18:38:29.022Z,100.00
2018-12-31T18:43:51.061Z,100.00
2018-12-31T18:48:55.142Z,100.00
2018-12-31T18:53:59.436Z,100.00
2018-12-31T18:59:03.496Z,100.00
2018-12-31T19:04:07.563Z,100.00
2018-12-31T19:09:29.376Z,100.00
2018-12-31T19:14:51.289Z,100.00
2018-12-31T19:19:55.477Z,100.00
2018-12-31T19:24:59.626Z,100.00
2018-12-31T19:30:03.728Z,100.00
2018-12-31T19:35:07.732Z,100.00
2018-12-31T19:40:29.640Z,100.00
2018-12-31T19:45:33.755Z,100.00
2018-12-31T19:50:37.852Z,100.00
2018-12-31T19:55:42.258Z,100.00
2018-12-31T20:00:46.254Z,100.00
2018-12-31T20:05:50.312Z,100.00
2018-12-31T20:10:54.374Z,100.00
2018-12-31T20:15:58.884Z,100.00
2018-12-31T20:21:02.974Z,100.00
2018-12-31T20:26:07.002Z,100.00
2018-12-31T20:31:11.152Z,100.00
2018-12-31T20:36:15.185Z,100.00
2018-12-31T20:41:19.521Z,100.00
2018-12-31T20:46:23.588Z,100.00
2018-12-31T20:51:27.597Z,100.00
2018-12-31T20:56:31.737Z,100.00
2018-12-31T21:01:35.817Z,100.00
2018-12-31T21:06:39.932Z,100.00
2018-12-31T21:11:44.156Z,100.00
2018-12-31T21:16:48.225Z,100.00
2018-12-31T21:21:52.543Z,100.00
2018-12-31T21:26:56.633Z,100.00
2018-12-31T21:32:00.680Z,100.00
2018-12-31T21:37:04.731Z,100.00
2018-12-31T21:42:08.818Z,100.00
2018-12-31T21:47:12.823Z,100.00
2018-12-31T21:52:23.410Z,100.00
2018-12-31T21:57:28.465Z,100.00
2018-12-31T22:02:33.924Z,100.00
2018-12-31T22:07:40.758Z,100.00
2018-12-31T22:12:45.621Z,100.00
2018-12-31T22:17:50.648Z,100.00
2018-12-31T22:22:56.785Z,100.00
2018-12-31T22:28:01.939Z,100.00
2018-12-31T22:33:06.034Z,100.00
2018-12-31T22:38:10.774Z,100.00
2018-12-31T22:43:15.635Z,100.00
2018-12-31T22:48:21.674Z,100.00
2018-12-31T22:53:26.985Z,100.00
2018-12-31T22:58:32.293Z,100.00
2018-12-31T23:03:36.634Z,100.00
2018-12-31T23:08:40.761Z,100.00
2018-12-31T23:13:45.140Z,100.00
2018-12-31T23:18:49.702Z,100.00
2018-12-31T23:23:53.803Z,100.00
2018-12-31T23:28:58.277Z,100.00
2018-12-31T23:34:02.839Z,100.00
2018-12-31T23:39:07.343Z,100.00
2018-12-31T23:44:11.386Z,100.00
2018-12-31T23:49:15.644Z,99.93
2018-12-31T23:54:19.725Z,100.00
2018-12-31T23:59:23.766Z,100.00
